Time;durP1;ratioP1;P1;durP2;ratioP2;P2;SDS_P1;SDS_P2;PMS_P1;PMS_P2;Temp;Humidity;BMP_temperature;BMP_pressure;BME280_temperature;BME280_humidity;BME280_pressure;Samples;Min_cycle;Max_cycle;Signal;HPM_P1;HPM_P2
2023/10/16 00:01:27;;;;;;;;;;;;;;;5.69;100.00;102375.34;5051894;28;19913;-90
2023/10/16 00:03:52;;;;;;;;;;;;;;;5.69;100.00;102372.78;5051874;28;19967;-90
2023/10/16 00:06:17;;;;;;;;;;;;;;;5.67;100.00;102374.34;5052990;28;19916;-90
2023/10/16 00:08:48;;;;;;;;;;;;;;;5.68;100.00;102368.38;5051536;28;19935;-90
2023/10/16 00:11:18;;;;;;;;;;;;;;;5.68;100.00;102375.25;5051644;28;19921;-90
2023/10/16 00:13:44;;;;;;;;;;;;;;;5.71;100.00;102372.88;5051604;28;19913;-90
2023/10/16 00:16:15;;;;;;;;;;;;;;;5.72;100.00;102370.41;5051441;28;19935;-90
2023/10/16 00:18:40;;;;;;;;;;;;;;;5.75;100.00;102368.00;5051241;28;19959;-90
2023/10/16 00:21:06;;;;;;;;;;;;;;;5.76;100.00;102379.25;5052341;28;19916;-90
2023/10/16 00:23:37;;;;;;;;;;;;;;;5.75;100.00;102370.59;5052661;28;19956;-90
2023/10/16 00:26:03;;;;;;;;;;;;;;;5.78;100.00;102369.00;5051397;28;20370;-90
2023/10/16 00:28:30;;;;;;;;;;;;;;;5.79;100.00;102370.81;5050873;28;20339;-90
2023/10/16 00:30:55;;;;;;;;;;;;;;;5.79;100.00;102370.81;5052545;28;20004;-90
2023/10/16 00:33:21;;;;;;;;;;;;;;;5.79;100.00;102370.81;5051264;28;20008;-90
2023/10/16 00:35:48;;;;;;;;;;;;;;;5.80;100.00;102370.00;5051279;28;19913;-90
2023/10/16 00:38:19;;;;;;;;;;;;;;;5.81;100.00;102364.94;5052369;28;19979;-90
2023/10/16 00:40:51;;;;;;;;;;;;;;;5.82;100.00;102361.56;5052476;28;20394;-90
2023/10/16 00:43:19;;;;;;;;;;;;;;;5.85;100.00;102360.84;5050791;28;19917;-90
2023/10/16 00:45:47;;;;;;;;;;;;;;;5.85;100.00;102363.44;5051162;28;20389;-90
2023/10/16 00:48:16;;;;;;;;;;;;;;;5.83;100.00;102370.22;5052094;28;20014;-90
2023/10/16 00:50:48;;;;;;;;;;;;;;;5.81;100.00;102364.03;5051101;28;19913;-90
2023/10/16 00:53:13;;;;;;;;;;;;;;;5.79;100.00;102363.91;5052005;28;19913;-90
2023/10/16 00:55:39;;;;;;;;;;;;;;;5.78;100.00;102366.41;5050890;28;19913;-90
2023/10/16 00:58:07;;;;;;;;;;;;;;;5.77;100.00;102368.13;5050766;28;19912;-90
2023/10/16 01:00:37;;;;;;;;;;;;;;;5.75;100.00;102364.53;5050683;28;19909;-90
2023/10/16 01:03:04;;;;;;;;;;;;;;;5.74;100.00;102363.63;5050560;28;19920;-90
2023/10/16 01:05:31;;;;;;;;;;;;;;;5.68;100.00;102365.78;5052153;28;19913;-91
2023/10/16 01:07:58;;;;;;;;;;;;;;;5.69;100.00;102359.84;5050524;28;19925;-90
2023/10/16 01:10:23;;;;;;;;;;;;;;;5.69;100.00;102362.44;5050859;28;19919;-91
2023/10/16 01:12:55;;;;;;;;;;;;;;;5.68;100.00;102354.56;5050553;28;19917;-91
2023/10/16 01:15:23;;;;;;;;;;;;;;;5.68;100.00;102346.81;5050493;28;19919;-91
2023/10/16 01:17:50;;;;;;;;;;;;;;;5.69;100.00;102357.25;5050305;28;19924;-91
2023/10/16 01:20:18;;;;;;;;;;;;;;;5.69;100.00;102344.31;5051738;28;19913;-91
2023/10/16 01:22:44;;;;;;;;;;;;;;;5.68;100.00;102339.94;5050283;28;20003;-91
2023/10/16 01:25:09;;;;;;;;;;;;;;;5.66;100.00;102348.38;5050259;28;20397;-90
2023/10/16 01:27:38;;;;;;;;;;;;;;;5.64;100.00;102345.69;5051336;28;19924;-91
2023/10/16 01:30:07;;;;;;;;;;;;;;;5.64;100.00;102337.94;5050423;28;19913;-91
2023/10/16 01:32:33;;;;;;;;;;;;;;;5.65;100.00;102336.22;5049349;28;19917;-90
2023/10/16 01:35:01;;;;;;;;;;;;;;;5.64;100.00;102335.34;5050293;28;19974;-90
2023/10/16 01:37:26;;;;;;;;;;;;;;;5.62;100.00;102342.13;5049917;28;19999;-90
2023/10/16 01:39:55;;;;;;;;;;;;;;;5.61;100.00;102345.50;5049992;28;20008;-91
2023/10/16 01:42:21;;;;;;;;;;;;;;;5.58;100.00;102347.88;5049950;28;19920;-90
2023/10/16 01:44:47;;;;;;;;;;;;;;;5.55;100.00;102335.63;5047829;28;19913;-90
2023/10/16 01:47:15;;;;;;;;;;;;;;;5.55;100.00;102339.91;5077272;28;20016;-91
2023/10/16 01:49:42;;;;;;;;;;;;;;;5.57;100.00;102338.31;5083545;28;19913;-90
2023/10/16 01:52:10;;;;;;;;;;;;;;;5.60;100.00;102346.28;5058367;28;19992;-90
2023/10/16 01:54:38;;;;;;;;;;;;;;;5.58;100.00;102337.53;5049900;28;19904;-90
2023/10/16 01:57:03;;;;;;;;;;;;;;;5.58;100.00;102334.94;5049802;28;20350;-90
2023/10/16 01:59:28;;;;;;;;;;;;;;;5.58;100.00;102322.00;5049766;28;19944;-91
2023/10/16 02:01:53;;;;;;;;;;;;;;;5.59;100.00;102326.41;5049771;28;19992;-90
2023/10/16 02:04:19;;;;;;;;;;;;;;;5.58;100.00;102325.47;5050735;28;19939;-91
2023/10/16 02:06:48;;;;;;;;;;;;;;;5.56;100.00;102324.50;5049464;28;19968;-90
2023/10/16 02:09:15;;;;;;;;;;;;;;;5.53;100.00;102320.78;5050591;28;19971;-90
2023/10/16 02:11:41;;;;;;;;;;;;;;;5.51;100.00;102328.44;5049630;28;19920;-90
2023/10/16 02:14:06;;;;;;;;;;;;;;;5.46;100.00;102328.91;5049224;28;19917;-90
2023/10/16 02:16:31;;;;;;;;;;;;;;;5.43;100.00;102326.13;5049374;28;20430;-90
2023/10/16 02:18:57;;;;;;;;;;;;;;;5.42;100.00;102322.66;5049509;28;19955;-90
2023/10/16 02:21:23;;;;;;;;;;;;;;;5.40;100.00;102322.56;5050556;28;19974;-90
2023/10/16 02:23:48;;;;;;;;;;;;;;;5.38;100.00;102324.13;5049241;28;19916;-90
2023/10/16 02:26:18;;;;;;;;;;;;;;;5.36;100.00;102319.66;5049323;28;19912;-91
2023/10/16 02:28:46;;;;;;;;;;;;;;;5.35;100.00;102321.31;5049296;28;20017;-90
2023/10/16 02:31:16;;;;;;;;;;;;;;;5.34;100.00;102314.34;5050458;28;20019;-90
2023/10/16 02:33:50;;;;;;;;;;;;;;;5.33;100.00;102315.16;5050395;28;20003;-90
2023/10/16 02:36:19;;;;;;;;;;;;;;;5.30;100.00;102309.78;5049242;28;19913;-90
2023/10/16 02:38:47;;;;;;;;;;;;;;;5.31;100.00;102310.69;5049392;28;19919;-91
2023/10/16 02:41:14;;;;;;;;;;;;;;;5.31;100.00;102310.69;5049076;28;19912;-90
2023/10/16 02:43:41;;;;;;;;;;;;;;;5.29;100.00;102308.00;5050089;28;19912;-90
2023/10/16 02:46:11;;;;;;;;;;;;;;;5.28;100.00;102303.59;5054549;28;19995;-91
2023/10/16 02:48:36;;;;;;;;;;;;;;;5.27;100.00;102309.59;5054493;28;19917;-90
2023/10/16 02:51:02;;;;;;;;;;;;;;;5.27;100.00;102311.25;5053048;28;20449;-90
2023/10/16 02:53:28;;;;;;;;;;;;;;;5.27;100.00;102307.00;5054243;28;19920;-90
2023/10/16 02:55:58;;;;;;;;;;;;;;;5.29;100.00;102315.75;5052976;28;19912;-90
2023/10/16 02:58:26;;;;;;;;;;;;;;;5.32;100.00;102312.47;5053097;28;19935;-91
2023/10/16 03:00:55;;;;;;;;;;;;;;;5.33;100.00;102312.59;5052943;28;19916;-91
2023/10/16 03:03:21;;;;;;;;;;;;;;;5.35;100.00;102304.94;5052840;28;19916;-90
2023/10/16 03:05:49;;;;;;;;;;;;;;;5.37;100.00;102309.44;5052906;28;20008;-90
2023/10/16 03:08:17;;;;;;;;;;;;;;;5.38;100.00;102311.19;5053784;28;19925;-91
2023/10/16 03:10:45;;;;;;;;;;;;;;;5.38;100.00;102310.31;5052626;28;19920;-91
2023/10/16 03:13:11;;;;;;;;;;;;;;;5.37;100.00;102303.34;5052811;28;19978;-90
2023/10/16 03:15:42;;;;;;;;;;;;;;;5.36;100.00;102310.22;5052691;28;20375;-91
2023/10/16 03:18:16;;;;;;;;;;;;;;;5.36;100.00;102307.63;5052758;28;19936;-90
2023/10/16 03:20:41;;;;;;;;;;;;;;;5.36;100.00;102307.63;5052782;28;20405;-90
2023/10/16 03:23:12;;;;;;;;;;;;;;;5.37;100.00;102300.75;5052263;28;19948;-91
2023/10/16 03:28:09;;;;;;;;;;;;;;;5.34;100.00;102305.72;5053577;28;19928;-90
2023/10/16 03:30:34;;;;;;;;;;;;;;;5.31;100.00;102305.50;5052395;28;19917;-90
2023/10/16 03:32:59;;;;;;;;;;;;;;;5.26;100.00;102300.03;5052351;28;20306;-90
2023/10/16 03:35:31;;;;;;;;;;;;;;;5.25;100.00;102303.41;5052458;28;20291;-90
2023/10/16 03:38:10;;;;;;;;;;;;;;;5.18;100.00;102304.66;5052302;28;19917;-90
2023/10/16 03:40:35;;;;;;;;;;;;;;;5.16;100.00;102305.38;5052168;28;19923;-90
2023/10/16 03:43:01;;;;;;;;;;;;;;;5.17;100.00;102299.38;5053644;28;19913;-91
2023/10/16 03:45:26;;;;;;;;;;;;;;;5.18;100.00;102301.19;5052258;28;19919;-91
2023/10/16 03:47:52;;;;;;;;;;;;;;;5.17;100.00;102299.38;5053539;28;19920;-91
2023/10/16 03:50:25;;;;;;;;;;;;;;;5.15;100.00;102303.56;5052058;28;20401;-90
2023/10/16 03:52:51;;;;;;;;;;;;;;;5.09;100.00;102292.81;5053269;28;19913;-91
2023/10/16 03:55:25;;;;;;;;;;;;;;;5.05;100.00;102305.53;5052586;28;19924;-91
2023/10/16 03:57:51;;;;;;;;;;;;;;;5.03;100.00;102301.03;5052320;28;19912;-91
2023/10/16 04:00:25;;;;;;;;;;;;;;;5.04;100.00;102306.31;5051932;28;19939;-91
2023/10/16 04:02:51;;;;;;;;;;;;;;;5.03;100.00;102289.00;5052031;28;20948;-91
2023/10/16 04:05:33;;;;;;;;;;;;;;;5.01;100.00;102293.19;5051801;28;19916;-91
2023/10/16 04:07:59;;;;;;;;;;;;;;;5.00;100.00;102296.53;5051913;28;19920;-91
2023/10/16 04:10:30;;;;;;;;;;;;;;;5.00;100.00;102299.13;5051700;28;19920;-90
2023/10/16 04:12:57;;;;;;;;;;;;;;;5.00;100.00;102295.66;5052926;28;19913;-90
2023/10/16 04:18:09;;;;;;;;;;;;;;;4.98;100.00;102292.97;5053199;28;19920;-90
2023/10/16 04:20:44;;;;;;;;;;;;;;;4.93;100.00;102285.69;5051572;28;20003;-90
2023/10/16 04:23:29;;;;;;;;;;;;;;;4.90;100.00;102282.88;5051387;28;20275;-90
2023/10/16 04:34:24;;;;;;;;;;;;;;;4.82;100.00;102287.50;5052822;28;19919;-90
2023/10/16 04:36:52;;;;;;;;;;;;;;;4.82;100.00;102277.16;5052547;28;19916;-90
2023/10/16 04:41:38;;;;;;;;;;;;;;;4.81;100.00;102275.41;5051206;28;19975;-91
2023/10/16 04:45:00;;;;;;;;;;;;;;;4.84;100.00;102270.44;5052658;28;19966;-91
2023/10/16 04:47:28;;;;;;;;;;;;;;;4.82;100.00;102270.34;5052510;28;19920;-90
2023/10/16 04:50:09;;;;;;;;;;;;;;;4.82;100.00;102264.25;5051078;28;19913;-91
2023/10/16 05:06:38;;;;;;;;;;;;;;;4.73;100.00;102255.88;5051977;28;19916;-91
2023/10/16 05:14:22;;;;;;;;;;;;;;;4.70;100.00;102257.44;5051695;28;19979;-91
2023/10/16 05:22:04;;;;;;;;;;;;;;;4.68;100.00;102253.88;5051910;28;20386;-91
2023/10/16 06:14:15;;;;;;;;;;;;;;;5.00;100.00;102254.31;5051012;28;20046;-91
2023/10/16 06:16:41;;;;;;;;;;;;;;;4.98;100.00;102256.81;5049980;28;20366;-91
2023/10/16 06:19:17;;;;;;;;;;;;;;;4.98;100.00;102253.31;5050815;28;20036;-90
2023/10/16 06:21:46;;;;;;;;;;;;;;;4.98;100.00;102250.72;5051357;28;19919;-91
2023/10/16 06:24:32;;;;;;;;;;;;;;;4.99;100.00;102253.41;5050119;28;20610;-90
2023/10/16 06:27:01;;;;;;;;;;;;;;;5.00;100.00;102250.03;5049774;28;20475;-91
2023/10/16 06:29:34;;;;;;;;;;;;;;;4.99;100.00;102252.53;5050842;28;22400;-91
2023/10/16 06:32:07;;;;;;;;;;;;;;;4.99;100.00;102253.41;5051136;28;20000;-91
2023/10/16 06:34:33;;;;;;;;;;;;;;;4.98;100.00;102261.97;5038399;28;19920;-91
2023/10/16 06:36:59;;;;;;;;;;;;;;;4.98;100.00;102259.38;5050957;28;20573;-91
2023/10/16 06:39:28;;;;;;;;;;;;;;;4.99;100.00;102258.56;5050657;28;19944;-91
2023/10/16 06:41:54;;;;;;;;;;;;;;;5.01;100.00;102256.09;5049581;28;19917;-91
2023/10/16 06:44:21;;;;;;;;;;;;;;;5.02;100.00;102256.19;5049493;28;19992;-90
2023/10/16 06:46:47;;;;;;;;;;;;;;;5.05;100.00;102260.69;5049613;28;19919;-91
2023/10/16 06:49:12;;;;;;;;;;;;;;;5.07;100.00;102263.38;5049411;28;19917;-90
2023/10/16 06:51:43;;;;;;;;;;;;;;;5.09;100.00;102259.22;5049725;28;20428;-90
2023/10/16 06:54:09;;;;;;;;;;;;;;;5.07;100.00;102259.13;5049138;28;19913;-90
2023/10/16 06:56:35;;;;;;;;;;;;;;;5.07;100.00;102264.28;5049675;28;19970;-91
2023/10/16 06:59:02;;;;;;;;;;;;;;;5.06;100.00;102259.91;5049455;28;19967;-91
2023/10/16 07:01:28;;;;;;;;;;;;;;;5.08;100.00;102267.75;5049767;28;20375;-91
2023/10/16 07:03:56;;;;;;;;;;;;;;;5.08;100.00;102260.88;5048422;28;19913;-91
2023/10/16 07:06:24;;;;;;;;;;;;;;;5.11;100.00;102255.03;5050782;28;19913;-91
2023/10/16 07:08:51;;;;;;;;;;;;;;;5.12;100.00;102260.31;5049635;28;19917;-91
2023/10/16 07:11:19;;;;;;;;;;;;;;;5.15;100.00;102262.22;5049430;28;19916;-91
2023/10/16 07:13:47;;;;;;;;;;;;;;;5.15;100.00;102264.81;5049903;28;19912;-91
2023/10/16 07:16:15;;;;;;;;;;;;;;;5.17;100.00;102266.72;5049835;28;19920;-91
2023/10/16 07:18:42;;;;;;;;;;;;;;;5.21;100.00;102262.63;5051024;28;19916;-91
2023/10/16 07:21:08;;;;;;;;;;;;;;;5.25;100.00;102261.16;5049687;28;19920;-91
2023/10/16 07:23:37;;;;;;;;;;;;;;;5.27;100.00;102265.66;5049129;28;19913;-91
2023/10/16 07:26:06;;;;;;;;;;;;;;;5.30;100.00;102263.28;5050800;28;19999;-91
2023/10/16 07:28:32;;;;;;;;;;;;;;;5.31;100.00;102269.31;5049583;28;20062;-91
2023/10/16 07:30:59;;;;;;;;;;;;;;;5.33;100.00;102262.56;5050768;28;20015;-91
2023/10/16 07:33:24;;;;;;;;;;;;;;;5.34;100.00;102262.66;5053026;28;19966;-91
2023/10/16 07:35:51;;;;;;;;;;;;;;;5.34;100.00;102270.41;5053020;28;19948;-91
2023/10/16 07:38:23;;;;;;;;;;;;;;;5.36;100.00;102268.84;5053101;28;19996;-91
2023/10/16 07:40:52;;;;;;;;;;;;;;;5.36;100.00;102270.56;5039450;28;19916;-91
2023/10/16 07:43:27;;;;;;;;;;;;;;;5.36;100.00;102261.09;5053076;28;19920;-91
2023/10/16 07:46:16;;;;;;;;;;;;;;;5.40;100.00;102262.19;5052981;28;19936;-91
2023/10/16 07:48:50;;;;;;;;;;;;;;;5.43;100.00;102261.50;5053090;28;19917;-91
2023/10/16 07:51:16;;;;;;;;;;;;;;;5.46;100.00;102256.53;5053051;28;20309;-91
2023/10/16 07:53:41;;;;;;;;;;;;;;;5.48;100.00;102249.81;5053308;28;19917;-91
2023/10/16 07:56:28;;;;;;;;;;;;;;;5.52;100.00;102251.81;5052977;28;20064;-92
2023/10/16 07:58:54;;;;;;;;;;;;;;;5.58;100.00;102257.38;5053338;28;19938;-91
2023/10/16 08:01:32;;;;;;;;;;;;;;;5.64;100.00;102257.78;5053005;28;20435;-91
2023/10/16 08:03:58;;;;;;;;;;;;;;;5.68;100.00;102259.78;5052378;28;20027;-91
2023/10/16 08:06:24;;;;;;;;;;;;;;;5.72;100.00;102259.19;5052170;28;20008;-91
2023/10/16 08:08:50;;;;;;;;;;;;;;;5.79;100.00;102254.41;5052147;28;20291;-91
2023/10/16 08:11:19;;;;;;;;;;;;;;;5.84;100.00;102259.09;5052052;28;19923;-91
2023/10/16 08:13:49;;;;;;;;;;;;;;;5.92;100.00;102264.75;5052138;28;20050;-91
2023/10/16 08:16:17;;;;;;;;;;;;;;;5.99;100.00;102261.81;5052777;28;19917;-91
2023/10/16 08:18:43;;;;;;;;;;;;;;;6.06;100.00;102257.94;5053283;28;19956;-91
2023/10/16 08:21:09;;;;;;;;;;;;;;;6.13;100.00;102260.13;5056626;28;19971;-91
2023/10/16 08:23:34;;;;;;;;;;;;;;;6.21;100.00;102255.44;5065845;28;20004;-91
2023/10/16 08:26:00;;;;;;;;;;;;;;;6.30;100.00;102262.91;5061643;28;19912;-91
2023/10/16 08:28:35;;;;;;;;;;;;;;;6.38;100.00;102265.16;5062460;28;20303;-91
2023/10/16 08:31:10;;;;;;;;;;;;;;;6.48;100.00;102255.41;5062872;28;19912;-91
2023/10/16 08:33:35;;;;;;;;;;;;;;;6.54;100.00;102260.97;5054164;28;20335;-90
2023/10/16 08:36:04;;;;;;;;;;;;;;;6.59;100.00;102267.34;5059085;28;19919;-91
2023/10/16 08:38:32;;;;;;;;;;;;;;;6.67;100.00;102263.53;5059504;28;19920;-91
2023/10/16 08:40:59;;;;;;;;;;;;;;;6.73;100.00;102260.41;5056885;28;19957;-91
2023/10/16 08:43:39;;;;;;;;;;;;;;;6.78;100.00;102262.50;5051931;28;19923;-91
2023/10/16 08:46:10;;;;;;;;;;;;;;;6.86;100.00;102262.06;5051801;28;19917;-90
2023/10/16 08:48:36;;;;;;;;;;;;;;;6.90;100.00;102259.75;5051450;28;19917;-91
2023/10/16 08:51:08;;;;;;;;;;;;;;;6.95;100.00;102254.84;5051488;28;20294;-91
2023/10/16 08:53:34;;;;;;;;;;;;;;;7.02;100.00;102261.31;5051766;28;20409;-91
2023/10/16 08:56:03;;;;;;;;;;;;;;;7.06;100.00;102251.22;5052721;28;20003;-91
2023/10/16 08:58:31;;;;;;;;;;;;;;;7.12;100.00;102256.78;5051726;28;19920;-91
2023/10/16 09:00:57;;;;;;;;;;;;;;;7.21;100.00;102250.38;5051161;28;19917;-91
2023/10/16 09:03:22;;;;;;;;;;;;;;;7.29;100.00;102259.50;5051379;28;19944;-91
2023/10/16 09:05:48;;;;;;;;;;;;;;;7.32;100.00;102255.38;5051209;28;20408;-91
2023/10/16 09:08:15;;;;;;;;;;;;;;;7.38;100.00;102261.75;5051136;28;20017;-91
2023/10/16 09:10:44;;;;;;;;;;;;;;;7.46;100.00;102257.91;5051042;28;19913;-91
2023/10/16 09:13:17;;;;;;;;;;;;;;;7.55;100.00;102262.75;5052396;28;19987;-92
2023/10/16 09:15:54;;;;;;;;;;;;;;;7.61;100.00;102260.50;5051315;28;20363;-90
2023/10/16 09:18:22;;;;;;;;;;;;;;;7.65;100.00;102262.50;5050700;28;19920;-91
2023/10/16 09:20:49;;;;;;;;;;;;;;;7.75;100.00;102271.69;5051270;28;19935;-92
2023/10/16 09:23:36;;;;;;;;;;;;;;;7.83;100.00;102266.16;5041113;28;20553;-91
2023/10/16 09:26:02;;;;;;;;;;;;;;;7.95;100.00;102265.03;5049737;28;19913;-91
2023/10/16 09:28:36;;;;;;;;;;;;;;;8.05;100.00;102262.16;5050234;28;20031;-92
2023/10/16 09:31:06;;;;;;;;;;;;;;;8.11;100.00;102256.44;5050491;28;19917;-92
2023/10/16 09:33:40;;;;;;;;;;;;;;;8.18;100.00;102258.56;5050027;28;20378;-92
2023/10/16 09:36:30;;;;;;;;;;;;;;;8.24;100.00;102261.53;5050079;28;19917;-91
2023/10/16 09:39:16;;;;;;;;;;;;;;;8.33;100.00;102263.75;5050325;28;19917;-91
2023/10/16 09:41:43;;;;;;;;;;;;;;;8.43;100.00;102265.13;5051153;28;19913;-91
2023/10/16 09:44:24;;;;;;;;;;;;;;;8.49;100.00;102266.41;5050606;28;20366;-91
2023/10/16 09:49:27;;;;;;;;;;;;;;;8.62;100.00;102259.28;5051040;28;20011;-91
2023/10/16 09:52:03;;;;;;;;;;;;;;;8.75;100.00;102259.13;5051601;28;20010;-91
2023/10/16 09:54:52;;;;;;;;;;;;;;;8.88;100.00;102251.19;5049742;28;19919;-91
2023/10/16 09:57:27;;;;;;;;;;;;;;;9.01;100.00;102252.72;5051952;28;19921;-91
2023/10/16 10:03:14;;;;;;;;;;;;;;;9.16;100.00;102250.03;5051930;28;19923;-91
2023/10/16 10:06:34;;;;;;;;;;;;;;;9.25;100.00;102257.41;5050061;28;20416;-91
2023/10/16 10:12:13;;;;;;;;;;;;;;;9.77;100.00;102256.56;5051600;28;19982;-91
2023/10/16 10:14:39;;;;;;;;;;;;;;;9.83;100.00;102254.25;5049805;28;19943;-90
2023/10/16 10:17:09;;;;;;;;;;;;;;;9.84;100.00;102257.75;5050122;28;20011;-91
2023/10/16 10:19:39;;;;;;;;;;;;;;;9.85;100.00;102249.16;5049745;28;19920;-91
2023/10/16 10:22:27;;;;;;;;;;;;;;;9.88;100.00;102247.56;5049673;28;19916;-91
2023/10/16 10:25:35;;;;;;;;;;;;;;;9.96;100.00;102249.66;5050656;28;19961;-91
2023/10/16 10:28:32;;;;;;;;;;;;;;;;;;;;;
2023/10/16 10:31:16;;;;;;;;;;;;;;;10.54;100.00;102243.75;5051247;28;19923;-91
2023/10/16 10:36:53;;;;;;;;;;;;;;;11.02;100.00;102243.28;5032077;28;20402;-91
2023/10/16 10:39:43;;;;;;;;;;;;;;;11.08;100.00;102241.84;5049138;28;19924;-91
2023/10/16 10:42:28;;;;;;;;;;;;;;;11.19;100.00;102244.91;5049554;28;20379;-91
2023/10/16 10:47:47;;;;;;;;;;;;;;;11.43;100.00;102245.09;5050764;28;20409;-91
2023/10/16 10:50:21;;;;;;;;;;;;;;;11.49;100.00;102232.28;5048807;28;19913;-91
2023/10/16 10:53:35;;;;;;;;;;;;;;;11.46;100.00;102236.50;5049238;28;19962;-91
2023/10/16 10:56:07;;;;;;;;;;;;;;;11.42;100.00;102237.19;5049308;28;19916;-91
2023/10/16 10:58:47;;;;;;;;;;;;;;;11.50;100.00;102233.22;5049226;28;19991;-92
2023/10/16 11:01:52;;;;;;;;;;;;;;;11.65;100.00;102232.94;5049151;28;19913;-91
2023/10/16 11:10:56;;;;;;;;;;;;;;;12.10;97.47;102220.00;5054932;28;19920;-93
2023/10/16 11:13:51;;;;;;;;;;;;;;;;;;;;;
2023/10/16 11:16:41;;;;;;;;;;;;;;;12.33;96.68;102218.28;5026739;28;19920;-92
2023/10/16 11:22:39;;;;;;;;;;;;;;;12.38;93.69;102214.94;5052270;28;19917;-92
2023/10/16 11:25:52;;;;;;;;;;;;;;;12.29;89.84;102211.16;5055353;28;19924;-92
2023/10/16 11:28:31;;;;;;;;;;;;;;;12.21;94.80;102209.97;5052707;28;19925;-92
2023/10/16 11:31:13;;;;;;;;;;;;;;;12.38;93.99;102204.50;5069906;28;19943;-92
2023/10/16 11:37:00;;;;;;;;;;;;;;;12.74;93.60;102193.63;5054665;28;20000;-93
2023/10/16 11:39:58;;;;;;;;;;;;;;;;;;;;;
2023/10/16 11:51:47;;;;;;;;;;;;;;;12.89;91.59;102183.72;5054447;28;19913;-93
2023/10/16 11:54:42;;;;;;;;;;;;;;;12.72;91.62;102174.41;5050832;28;20291;-93
2023/10/16 12:00:38;;;;;;;;;;;;;;;12.45;91.70;102177.75;5048206;28;19917;-93
2023/10/16 12:03:31;;;;;;;;;;;;;;;12.37;92.83;102174.88;5052894;28;20448;-92
2023/10/16 12:06:07;;;;;;;;;;;;;;;12.27;93.55;102175.34;5053426;28;19969;-93
2023/10/16 12:09:00;;;;;;;;;;;;;;;12.14;94.44;102172.25;5053446;28;20011;-93
2023/10/16 12:14:45;;;;;;;;;;;;;;;12.02;94.24;102168.28;5054372;28;20010;-92
2023/10/16 12:26:07;;;;;;;;;;;;;;;11.91;92.13;102155.66;5054238;28;19920;-93
2023/10/16 12:32:03;;;;;;;;;;;;;;;11.82;92.26;102155.31;5030500;28;19949;-93
2023/10/16 12:35:11;;;;;;;;;;;;;;;;;;;;;
2023/10/16 12:38:06;;;;;;;;;;;;;;;;;;;;;
2023/10/16 12:41:08;;;;;;;;;;;;;;;11.95;91.60;102141.03;5039732;28;19921;-93
2023/10/16 12:50:04;;;;;;;;;;;;;;;12.11;92.75;102126.84;5069052;28;19978;-92
2023/10/16 12:56:12;;;;;;;;;;;;;;;12.11;90.53;102135.56;5044595;28;19921;-93
2023/10/16 13:02:05;;;;;;;;;;;;;;;12.06;90.54;102128.38;5055496;28;19966;-92
2023/10/16 13:05:01;;;;;;;;;;;;;;;12.10;91.74;102125.94;5053613;28;19924;-92
2023/10/16 13:08:12;;;;;;;;;;;;;;;;;;;;;
2023/10/16 13:11:02;;;;;;;;;;;;;;;12.16;91.59;102125.28;5061226;28;20425;-92
2023/10/16 13:13:41;;;;;;;;;;;;;;;12.23;91.83;102127.28;5063558;28;19920;-94
2023/10/16 13:16:24;;;;;;;;;;;;;;;12.27;90.28;102123.09;5044154;28;19920;-93
2023/10/16 13:19:09;;;;;;;;;;;;;;;12.33;91.26;102124.19;5073403;28;19978;-93
2023/10/16 13:31:32;;;;;;;;;;;;;;;;;;;;;
2023/10/16 13:34:02;;;;;;;;;;;;;;;12.43;87.23;102114.97;5067308;28;19916;-93
2023/10/16 13:37:01;;;;;;;;;;;;;;;12.43;86.50;102119.31;5043952;28;20016;-93
2023/10/16 13:40:04;;;;;;;;;;;;;;;12.42;86.79;102110.56;4996663;28;19914;-93
2023/10/16 13:43:10;;;;;;;;;;;;;;;12.39;87.41;102117.41;4989221;28;20402;-93
2023/10/16 13:49:14;;;;;;;;;;;;;;;12.42;87.26;102109.69;4989756;28;19924;-93
2023/10/16 13:52:01;;;;;;;;;;;;;;;12.39;87.45;102104.34;4972921;28;19949;-93
2023/10/16 14:02:02;;;;;;;;;;;;;;;12.45;85.36;102100.22;4970192;28;20439;-92
2023/10/16 14:08:14;;;;;;;;;;;;;;;12.46;86.41;102102.00;5006840;28;20004;-92
2023/10/16 14:14:26;;;;;;;;;;;;;;;12.56;85.40;102090.16;5024407;28;20378;-93
2023/10/16 14:20:34;;;;;;;;;;;;;;;12.58;86.67;102084.97;4855860;28;19916;-93
2023/10/16 14:23:03;;;;;;;;;;;;;;;12.56;83.55;102079.69;4953606;28;19918;-93
2023/10/16 14:32:15;;;;;;;;;;;;;;;;;;;;;
2023/10/16 14:35:02;;;;;;;;;;;;;;;12.87;83.73;102080.75;4838822;29;19956;-93
2023/10/16 14:44:09;;;;;;;;;;;;;;;12.90;82.45;102075.63;4847641;29;19972;-93
2023/10/16 14:47:09;;;;;;;;;;;;;;;12.95;83.48;102068.81;4935406;29;20010;-95
2023/10/16 14:50:02;;;;;;;;;;;;;;;12.85;84.20;102066.75;4968949;28;19922;-94
2023/10/16 15:03:00;;;;;;;;;;;;;;;12.44;86.33;102063.56;4984181;28;19924;-94
2023/10/16 15:05:49;;;;;;;;;;;;;;;12.40;87.36;102056.44;4962986;28;20406;-93
2023/10/16 15:08:41;;;;;;;;;;;;;;;12.38;87.48;102061.63;4974013;28;19933;-94
2023/10/16 15:18:14;;;;;;;;;;;;;;;;;;;;;
2023/10/16 15:24:04;;;;;;;;;;;;;;;12.26;89.04;102056.84;4958871;28;19921;-93
2023/10/16 15:39:00;;;;;;;;;;;;;;;12.25;90.26;102051.56;5069531;28;20017;-94
2023/10/16 15:48:15;;;;;;;;;;;;;;;12.11;90.38;102032.78;5005914;28;20501;-94
2023/10/16 15:51:02;;;;;;;;;;;;;;;12.05;90.45;102050.81;4992869;28;19919;-95
2023/10/16 15:53:50;;;;;;;;;;;;;;;12.02;90.80;102048.09;5001034;28;19917;-93
2023/10/16 15:59:23;;;;;;;;;;;;;;;11.93;90.77;102046.91;5018893;28;20009;-94
2023/10/16 16:11:30;;;;;;;;;;;;;;;;;;;;;
2023/10/16 16:17:20;;;;;;;;;;;;;;;11.55;91.84;102053.28;5048991;28;19923;-93
2023/10/16 16:26:19;;;;;;;;;;;;;;;;;;;;;
2023/10/16 16:28:56;;;;;;;;;;;;;;;11.35;92.45;102053.38;5090334;28;19920;-94
2023/10/16 16:31:25;;;;;;;;;;;;;;;11.28;92.40;102052.25;5099579;28;19951;-93
2023/10/16 16:34:00;;;;;;;;;;;;;;;11.23;92.44;102053.78;5088086;28;20555;-94
2023/10/16 16:36:44;;;;;;;;;;;;;;;11.14;92.71;102056.03;5087101;28;19977;-94
2023/10/16 16:46:01;;;;;;;;;;;;;;;10.96;93.15;102054.44;5085545;28;19942;-93
2023/10/16 16:48:45;;;;;;;;;;;;;;;10.95;93.15;102052.66;5071382;28;19917;-94
2023/10/16 16:54:37;;;;;;;;;;;;;;;10.87;93.17;102054.03;5055060;28;19913;-94
2023/10/16 17:03:42;;;;;;;;;;;;;;;10.76;93.56;102047.47;5076726;28;19919;-94
2023/10/16 17:09:53;;;;;;;;;;;;;;;;;;;;;
2023/10/16 17:12:47;;;;;;;;;;;;;;;10.61;93.77;102048.59;5056606;28;19916;-94
2023/10/16 17:15:45;;;;;;;;;;;;;;;10.55;93.89;102050.06;5050401;28;19916;-94
2023/10/16 17:18:41;;;;;;;;;;;;;;;;;;;;;
2023/10/16 17:21:26;;;;;;;;;;;;;;;;;;;;;
2023/10/16 17:24:04;;;;;;;;;;;;;;;10.40;94.12;102060.72;5075719;28;19919;-93
2023/10/16 17:26:52;;;;;;;;;;;;;;;10.39;94.38;102058.94;5043350;28;19913;-93
2023/10/16 17:29:41;;;;;;;;;;;;;;;10.39;94.49;102058.94;5029803;28;19917;-93
2023/10/16 17:35:23;;;;;;;;;;;;;;;;;;;;;
2023/10/16 17:41:11;;;;;;;;;;;;;;;10.25;94.58;102055.69;5010462;28;19917;-93
2023/10/16 17:44:23;;;;;;;;;;;;;;;10.19;94.67;102066.72;5070659;28;20392;-93
2023/10/16 17:50:09;;;;;;;;;;;;;;;10.14;94.99;102077.75;5093110;28;19916;-94
2023/10/16 17:52:55;;;;;;;;;;;;;;;10.08;94.93;102076.66;5072697;28;19912;-93
2023/10/16 17:58:57;;;;;;;;;;;;;;;10.02;95.31;102070.28;5060866;28;19912;-93
2023/10/16 18:01:45;;;;;;;;;;;;;;;;;;;;;
2023/10/16 18:04:35;;;;;;;;;;;;;;;9.98;95.48;102073.56;5050123;28;20371;-94
2023/10/16 18:07:11;;;;;;;;;;;;;;;9.96;95.35;102075.22;4995833;28;19975;-93
2023/10/16 18:10:03;;;;;;;;;;;;;;;9.91;95.48;102065.47;5031819;28;19916;-93
2023/10/16 18:13:05;;;;;;;;;;;;;;;;;;;;;
2023/10/16 18:16:04;;;;;;;;;;;;;;;9.85;95.59;102046.09;5041937;28;19923;-93
2023/10/16 18:18:41;;;;;;;;;;;;;;;9.83;95.65;102053.78;5030229;28;20059;-94
2023/10/16 18:21:27;;;;;;;;;;;;;;;9.81;95.55;102046.75;5028118;28;19917;-93
2023/10/16 18:23:59;;;;;;;;;;;;;;;9.77;95.47;102050.91;5040697;28;19956;-93
2023/10/16 18:26:47;;;;;;;;;;;;;;;9.72;95.67;102047.22;5054726;28;20393;-94
2023/10/16 18:29:45;;;;;;;;;;;;;;;9.65;95.63;102046.03;5058485;28;20366;-93
2023/10/16 18:35:22;;;;;;;;;;;;;;;9.53;95.73;102043.75;5065951;28;19951;-92